createdAt,value
2022-11-15T00:11:27.864Z,79.1
2022-11-15T00:26:37.136Z,79.1
2022-11-15T00:41:46.741Z,79
2022-11-15T00:56:56.488Z,79
2022-11-15T01:12:06.057Z,79
2022-11-15T01:27:15.528Z,78.9
2022-11-15T01:42:25.510Z,78.6
2022-11-15T01:57:34.901Z,78.6
2022-11-15T02:12:44.793Z,78.7
2022-11-15T02:27:56.355Z,78.6
2022-11-15T02:43:09.045Z,78.4
2022-11-15T02:58:18.491Z,78.4
2022-11-15T03:13:30.052Z,78.4
2022-11-15T03:28:39.893Z,78.5
2022-11-15T03:43:49.345Z,78.6
2022-11-15T03:58:58.673Z,78.8
2022-11-15T04:14:08.362Z,78.8
2022-11-15T04:29:18.222Z,78.5
2022-11-15T04:44:28.147Z,78.5
2022-11-15T04:59:36.988Z,78.4
2022-11-15T05:14:46.371Z,78.6
2022-11-15T05:29:56.279Z,78.7
2022-11-15T05:45:05.752Z,78.9
2022-11-15T06:00:15.094Z,79
2022-11-15T06:15:24.695Z,79.1
2022-11-15T06:30:34.174Z,79.1
2022-11-15T06:45:43.463Z,79.2
2022-11-15T07:00:56.519Z,79.2
2022-11-15T07:16:06.317Z,79.4
2022-11-15T09:06:21.387Z,73.8
2022-11-15T09:21:39.218Z,79.7
2022-11-15T09:36:48.396Z,80
2022-11-15T09:52:01.224Z,79.8
2022-11-15T10:07:11.314Z,79.4
2022-11-15T10:22:21.135Z,79.4
2022-11-15T10:37:30.436Z,79.2
2022-11-15T10:52:40.214Z,79
2022-11-15T11:07:49.643Z,78.6
2022-11-15T11:23:01.898Z,78
2022-11-15T11:38:12.407Z,77.9
2022-11-15T11:53:23.589Z,77.3
2022-11-15T12:08:35.803Z,76.8
2022-11-15T12:58:08.590Z,63.5
2022-11-15T13:13:24.246Z,69.7
2022-11-15T13:28:34.646Z,71.2
2022-11-15T13:43:46.482Z,72.1
2022-11-15T13:58:57.963Z,72.6
2022-11-15T14:14:07.616Z,73.3
2022-11-15T14:29:18.636Z,73.8
2022-11-15T14:44:27.827Z,74.2
2022-11-15T14:59:37.220Z,74.5
2022-11-15T15:14:46.908Z,74.8
2022-11-15T15:29:55.970Z,75.1
2022-11-15T15:45:05.316Z,75.2
2022-11-15T16:00:17.315Z,75.3
2022-11-15T16:15:27.908Z,75.5
2022-11-15T16:30:37.178Z,75.6
2022-11-15T16:45:47.264Z,75.6
2022-11-15T17:00:57.881Z,75.6
2022-11-15T17:16:07.833Z,75.7
2022-11-15T17:31:17.454Z,75.8
2022-11-15T17:46:26.872Z,76
2022-11-15T18:01:36.852Z,76.2
2022-11-15T18:16:46.454Z,76.4
2022-11-15T18:31:57.190Z,76.6
2022-11-15T18:47:06.691Z,76.8
2022-11-15T19:02:16.060Z,76.9
2022-11-15T19:17:25.533Z,76.9
2022-11-15T19:32:34.951Z,76.9
2022-11-15T19:47:44.708Z,77
2022-11-15T20:02:54.796Z,77
2022-11-15T20:18:04.010Z,76.9
2022-11-15T20:33:13.691Z,76.9
2022-11-15T20:48:23.412Z,76.9
2022-11-15T21:03:33.261Z,76.8
2022-11-15T21:18:43.847Z,76.9
2022-11-15T21:33:54.014Z,76.9
2022-11-15T21:49:03.856Z,77
2022-11-15T22:04:13.367Z,77
2022-11-15T22:19:22.719Z,77.1
2022-11-15T22:34:32.496Z,77
2022-11-15T22:49:42.338Z,77
2022-11-15T23:04:52.297Z,77
2022-11-15T23:20:44.303Z,77.1
2022-11-15T23:35:58.717Z,77.2
2022-11-15T23:51:08.698Z,77.2
